Terminal Aerodrome Forecast
Issued by NWS

Home | Current Version | Previous Version | Text Only | Print | Product List | Glossary On
Versions: 1 2 3 4 5 6 7 8 9 10 11 12 13 14 15 16 17 18 19 20
000
FTUS45 KTFX 021739
TAFCTB
TAF
KCTB 021739Z 0218/0318 11014G22KT P6SM VCSH SCT015 BKN035
      TEMPO 0221/0301 SHRA BKN015
     FM030300 20006KT P6SM SCT030 BKN070
      TEMPO 0310/0314 2SM BR OVC005
     FM031500 21007KT P6SM SCT070=

USA.gov is the U.S. government's official web portal to all federal, state and local government web resources and services.